Time;durP1;ratioP1;P1;durP2;ratioP2;P2;SDS_P1;SDS_P2;PMS_P1;PMS_P2;Temp;Humidity;BMP_temperature;BMP_pressure;BME280_temperature;BME280_humidity;BME280_pressure;Samples;Min_cycle;Max_cycle;Signal;HPM_P1;HPM_P2
2021/07/06 00:02:20;;;;;;;2.30;1.30;;;14.80;99.90;;;;;;5078870;28;20203;-83
2021/07/06 00:04:48;;;;;;;1.50;1.40;;;14.80;99.90;;;;;;5080261;28;20185;-83
2021/07/06 00:07:17;;;;;;;6.97;1.77;;;14.70;99.90;;;;;;5079794;28;20242;-83
2021/07/06 00:09:44;;;;;;;1.60;1.40;;;14.70;99.90;;;;;;5079875;28;20197;-82
2021/07/06 00:12:10;;;;;;;2.37;1.50;;;14.70;99.90;;;;;;5080392;28;20196;-83
2021/07/06 00:14:35;;;;;;;2.50;1.50;;;14.70;99.90;;;;;;5079899;28;20234;-83
2021/07/06 00:17:01;;;;;;;1.50;1.30;;;14.70;99.90;;;;;;5080026;28;20287;-83
2021/07/06 00:19:27;;;;;;;1.77;1.60;;;14.70;99.90;;;;;;5078120;28;20201;-82
2021/07/06 00:21:53;;;;;;;4.00;1.50;;;14.70;99.90;;;;;;5077942;28;20185;-82
2021/07/06 00:24:19;;;;;;;1.83;1.73;;;14.70;99.90;;;;;;5077837;28;20227;-82
2021/07/06 00:26:45;;;;;;;3.47;1.47;;;14.70;99.90;;;;;;5079134;28;20223;-83
2021/07/06 00:29:11;;;;;;;1.87;1.67;;;14.70;99.90;;;;;;5076409;28;20215;-82
2021/07/06 00:31:37;;;;;;;2.63;1.37;;;14.70;99.90;;;;;;5076827;28;20208;-82
2021/07/06 00:34:02;;;;;;;3.00;1.60;;;14.70;99.90;;;;;;5076605;28;20216;-82
2021/07/06 00:36:28;;;;;;;3.13;1.50;;;14.70;99.90;;;;;;5076739;28;20267;-82
2021/07/06 00:38:54;;;;;;;2.27;1.60;;;14.60;99.90;;;;;;5077343;28;20196;-82
2021/07/06 00:41:19;;;;;;;1.50;1.40;;;14.60;99.90;;;;;;5075883;28;20183;-82
2021/07/06 00:43:45;;;;;;;2.33;1.40;;;14.60;99.90;;;;;;5078989;28;20654;-82
2021/07/06 00:46:11;;;;;;;2.83;1.30;;;14.60;99.90;;;;;;5085232;28;20207;-82
2021/07/06 00:48:38;;;;;;;2.63;1.40;;;14.60;99.90;;;;;;5079251;28;20603;-82
2021/07/06 00:51:03;;;;;;;3.90;1.70;;;14.60;99.90;;;;;;5079526;28;20196;-83
2021/07/06 00:53:29;;;;;;;1.90;1.53;;;14.50;99.90;;;;;;5080859;28;20635;-83
2021/07/06 00:55:57;;;;;;;2.13;1.40;;;14.60;99.90;;;;;;5084227;28;20177;-82
2021/07/06 00:58:24;;;;;;;1.23;1.13;;;14.50;99.90;;;;;;5078390;28;20169;-82
2021/07/06 01:00:50;;;;;;;3.27;1.83;;;14.50;99.90;;;;;;5078440;28;20177;-82
2021/07/06 01:03:16;;;;;;;2.13;1.90;;;14.50;99.90;;;;;;5078585;28;20176;-82
2021/07/06 01:05:41;;;;;;;1.63;1.30;;;14.40;99.90;;;;;;5078511;28;20340;-82
2021/07/06 01:08:08;;;;;;;2.00;1.60;;;14.40;99.90;;;;;;5076814;28;20185;-82
2021/07/06 01:10:35;;;;;;;2.03;1.40;;;14.40;99.90;;;;;;5078394;28;20196;-82
2021/07/06 01:13:01;;;;;;;3.03;1.70;;;14.40;99.90;;;;;;5078069;28;20169;-82
2021/07/06 01:15:29;;;;;;;1.77;1.30;;;14.40;99.90;;;;;;5077154;28;20180;-82
2021/07/06 01:18:05;;;;;;;2.23;1.50;;;14.40;99.90;;;;;;5078177;28;20198;-82
2021/07/06 01:20:32;;;;;;;1.63;1.50;;;14.40;99.90;;;;;;5078067;28;20603;-82
2021/07/06 01:22:59;;;;;;;1.30;1.20;;;14.40;99.90;;;;;;5076669;28;20217;-82
2021/07/06 01:25:24;;;;;;;2.30;1.43;;;14.40;99.90;;;;;;5076862;28;20549;-82
2021/07/06 01:27:50;;;;;;;1.40;1.30;;;14.40;99.90;;;;;;5076412;28;20201;-82
2021/07/06 01:30:17;;;;;;;2.10;1.40;;;14.30;99.90;;;;;;5077092;28;20214;-82
2021/07/06 01:32:45;;;;;;;3.00;1.33;;;14.30;99.90;;;;;;5077849;28;20200;-82
2021/07/06 01:35:13;;;;;;;1.63;1.40;;;14.30;99.90;;;;;;5076496;28;20642;-82
2021/07/06 01:37:43;;;;;;;4.40;1.40;;;14.30;99.90;;;;;;5077718;28;20263;-82
2021/07/06 01:40:09;;;;;;;2.40;1.30;;;14.20;99.90;;;;;;5075679;28;20697;-82
2021/07/06 01:42:34;;;;;;;2.40;1.50;;;14.30;99.90;;;;;;5076344;28;20181;-82
2021/07/06 01:45:12;;;;;;;2.50;1.40;;;14.20;99.90;;;;;;5077106;28;20180;-82
2021/07/06 01:47:39;;;;;;;1.83;1.30;;;14.20;99.90;;;;;;5077988;28;20167;-82
2021/07/06 01:50:07;;;;;;;2.40;1.50;;;14.20;99.90;;;;;;5076057;28;20222;-82
2021/07/06 01:52:33;;;;;;;1.60;1.40;;;14.20;99.90;;;;;;5077591;28;20299;-82
2021/07/06 01:54:59;;;;;;;2.20;1.30;;;14.20;99.90;;;;;;5076671;28;20204;-82
2021/07/06 01:57:25;;;;;;;2.03;1.30;;;14.20;99.90;;;;;;5077705;28;20206;-82
2021/07/06 01:59:51;;;;;;;2.90;1.50;;;14.10;99.90;;;;;;5077593;28;20196;-83
2021/07/06 02:02:18;;;;;;;2.60;1.50;;;14.20;99.90;;;;;;5077375;28;20569;-82
2021/07/06 02:04:45;;;;;;;1.90;1.60;;;14.10;99.90;;;;;;5077546;28;20255;-82
2021/07/06 02:07:10;;;;;;;3.13;1.40;;;14.20;99.90;;;;;;5076730;28;20259;-82
2021/07/06 02:09:36;;;;;;;1.90;1.40;;;14.10;99.90;;;;;;5077198;28;20228;-82
2021/07/06 02:12:02;;;;;;;1.83;1.60;;;14.10;99.90;;;;;;5078068;28;20279;-82
2021/07/06 02:14:28;;;;;;;2.53;1.40;;;14.10;99.90;;;;;;5078811;28;20530;-82
2021/07/06 02:16:53;;;;;;;1.47;1.20;;;14.10;99.90;;;;;;5076972;28;20208;-82
2021/07/06 02:19:19;;;;;;;1.80;1.43;;;14.10;99.90;;;;;;5077056;28;20710;-82
2021/07/06 02:21:45;;;;;;;1.70;1.37;;;14.10;99.90;;;;;;5075463;28;20179;-82
2021/07/06 02:24:11;;;;;;;2.43;1.20;;;14.10;99.90;;;;;;5075381;28;20181;-82
2021/07/06 02:26:37;;;;;;;2.37;1.60;;;14.10;99.90;;;;;;5076974;28;20212;-82
2021/07/06 02:29:02;;;;;;;1.40;1.30;;;14.10;99.90;;;;;;5075705;28;20246;-82
2021/07/06 02:31:28;;;;;;;2.90;1.40;;;14.10;99.90;;;;;;5075906;28;20535;-82
2021/07/06 02:33:54;;;;;;;2.50;1.30;;;14.10;99.90;;;;;;5077508;28;20244;-82
2021/07/06 02:36:19;;;;;;;1.30;1.20;;;14.10;99.90;;;;;;5077328;28;20570;-82
2021/07/06 02:38:45;;;;;;;2.07;1.20;;;14.20;99.90;;;;;;5075926;28;20274;-82
2021/07/06 02:41:11;;;;;;;1.90;1.13;;;14.20;99.90;;;;;;5076251;28;20181;-82
2021/07/06 02:43:38;;;;;;;2.00;1.50;;;14.20;99.90;;;;;;5076065;28;20172;-82
2021/07/06 02:46:04;;;;;;;2.50;1.30;;;14.10;99.90;;;;;;5077835;28;20169;-82
2021/07/06 02:48:30;;;;;;;1.90;1.47;;;14.10;99.90;;;;;;5084806;28;20197;-82
2021/07/06 02:50:56;;;;;;;1.63;1.43;;;14.10;99.90;;;;;;5076137;28;20203;-82
2021/07/06 02:53:21;;;;;;;1.70;1.20;;;14.10;99.90;;;;;;5079986;28;20266;-82
2021/07/06 02:55:47;;;;;;;2.60;1.40;;;14.10;99.90;;;;;;5081391;28;20211;-82
2021/07/06 02:58:13;;;;;;;1.23;1.13;;;14.10;99.90;;;;;;5079814;28;20173;-82
2021/07/06 03:00:39;;;;;;;2.07;1.20;;;14.10;99.90;;;;;;5079598;28;20638;-82
2021/07/06 03:03:08;;;;;;;1.40;1.30;;;14.10;99.90;;;;;;5081540;28;20546;-82
2021/07/06 03:05:34;;;;;;;1.20;1.10;;;14.10;99.90;;;;;;5079187;28;20175;-82
2021/07/06 03:08:02;;;;;;;1.57;1.10;;;14.10;99.90;;;;;;5077910;28;20234;-82
2021/07/06 03:10:33;;;;;;;3.77;1.43;;;14.00;99.90;;;;;;5077252;28;20724;-82
2021/07/06 03:12:59;;;;;;;2.53;1.20;;;14.00;99.90;;;;;;5078690;28;20268;-82
2021/07/06 03:15:28;;;;;;;2.80;1.20;;;14.00;99.90;;;;;;5085563;28;20198;-82
2021/07/06 03:17:54;;;;;;;3.30;1.33;;;14.00;99.90;;;;;;5083396;28;20227;-82
2021/07/06 03:20:22;;;;;;;3.87;1.30;;;14.00;99.90;;;;;;5078720;28;20203;-82
2021/07/06 03:22:47;;;;;;;2.53;1.27;;;14.00;99.90;;;;;;5079191;28;20749;-82
2021/07/06 03:25:15;;;;;;;1.40;1.20;;;14.00;99.90;;;;;;5079068;28;20220;-82
2021/07/06 03:27:41;;;;;;;3.43;1.30;;;14.00;99.90;;;;;;5078914;28;20326;-82
2021/07/06 03:30:15;;;;;;;2.67;1.60;;;14.00;99.90;;;;;;5078598;28;20241;-82
2021/07/06 03:32:41;;;;;;;1.13;1.03;;;14.00;99.90;;;;;;5079128;28;20204;-82
2021/07/06 03:35:07;;;;;;;1.20;1.10;;;14.00;99.90;;;;;;5078780;28;20172;-82
2021/07/06 03:37:34;;;;;;;2.40;1.20;;;14.00;99.90;;;;;;5079847;28;20173;-82
2021/07/06 03:40:00;;;;;;;4.43;2.00;;;14.00;99.90;;;;;;5079838;28;20195;-83
2021/07/06 03:42:25;;;;;;;3.17;1.10;;;14.00;99.90;;;;;;5080661;28;20177;-82
2021/07/06 03:44:51;;;;;;;1.30;1.20;;;14.00;99.90;;;;;;5078948;28;20185;-82
2021/07/06 03:47:17;;;;;;;3.13;1.30;;;14.00;99.90;;;;;;5079800;28;20177;-82
2021/07/06 03:49:43;;;;;;;1.37;1.27;;;14.00;99.90;;;;;;5078483;28;20212;-84
2021/07/06 03:52:08;;;;;;;2.80;1.30;;;14.00;99.90;;;;;;5079814;28;20208;-82
2021/07/06 03:54:34;;;;;;;2.27;1.23;;;14.00;99.90;;;;;;5080541;28;20177;-82
2021/07/06 03:57:00;;;;;;;1.70;1.20;;;14.00;99.90;;;;;;5078797;28;20177;-82
2021/07/06 03:59:26;;;;;;;1.67;1.40;;;14.00;99.90;;;;;;5079580;28;20189;-82
2021/07/06 04:01:52;;;;;;;4.60;1.03;;;14.00;99.90;;;;;;5079341;28;20181;-82
2021/07/06 04:04:18;;;;;;;1.63;1.40;;;14.00;99.90;;;;;;5080382;28;20585;-82
2021/07/06 04:06:43;;;;;;;7.87;1.30;;;14.10;99.90;;;;;;5080449;28;20211;-82
2021/07/06 04:09:09;;;;;;;3.00;1.20;;;14.10;99.90;;;;;;5078948;28;20197;-82
2021/07/06 04:11:35;;;;;;;2.13;1.00;;;14.10;99.90;;;;;;5079837;28;20204;-82
2021/07/06 04:14:00;;;;;;;2.93;1.57;;;14.10;99.90;;;;;;5078521;28;20173;-82
2021/07/06 04:16:26;;;;;;;3.13;1.17;;;14.20;99.90;;;;;;5079921;28;20177;-82
2021/07/06 04:18:51;;;;;;;1.10;1.00;;;14.20;99.90;;;;;;5078370;28;20250;-82
2021/07/06 04:21:17;;;;;;;1.00;0.90;;;14.30;99.90;;;;;;5078321;28;20187;-82
2021/07/06 04:23:43;;;;;;;1.37;1.27;;;14.30;99.90;;;;;;5078550;28;20251;-83
2021/07/06 04:26:09;;;;;;;2.80;1.40;;;14.30;99.90;;;;;;5078113;28;20181;-82
2021/07/06 04:28:35;;;;;;;1.97;1.77;;;14.40;99.90;;;;;;5078634;28;20216;-82
2021/07/06 04:31:01;;;;;;;1.93;1.20;;;14.40;99.90;;;;;;5079582;28;20542;-83
2021/07/06 04:33:27;;;;;;;3.00;1.40;;;14.40;99.90;;;;;;5079660;28;20172;-82
2021/07/06 04:35:53;;;;;;;4.00;1.20;;;14.40;99.90;;;;;;5078360;28;20179;-83
2021/07/06 04:38:19;;;;;;;3.37;1.57;;;14.50;99.90;;;;;;5078479;28;20175;-82
2021/07/06 04:40:45;;;;;;;3.37;1.37;;;14.50;99.90;;;;;;5078010;28;20627;-83
2021/07/06 04:43:11;;;;;;;2.13;1.30;;;14.60;99.90;;;;;;5079134;28;20181;-82
2021/07/06 04:45:38;;;;;;;4.47;1.50;;;14.60;99.90;;;;;;5086580;28;20555;-83
2021/07/06 04:48:05;;;;;;;5.23;1.20;;;14.70;99.90;;;;;;5078066;28;20183;-82
2021/07/06 04:50:38;;;;;;;4.33;1.13;;;14.70;99.90;;;;;;5079634;28;20199;-82
2021/07/06 04:53:04;;;;;;;1.33;0.93;;;14.80;99.90;;;;;;5078487;28;20260;-83
2021/07/06 04:55:30;;;;;;;4.30;1.13;;;14.90;99.90;;;;;;5079394;28;20193;-83
2021/07/06 04:57:55;;;;;;;1.57;1.20;;;14.90;99.90;;;;;;5079073;28;20646;-82
2021/07/06 05:00:22;;;;;;;1.80;1.00;;;15.00;99.90;;;;;;5078237;28;20227;-82
2021/07/06 05:02:47;;;;;;;3.73;1.30;;;15.10;99.90;;;;;;5078205;28;20180;-80
2021/07/06 05:05:14;;;;;;;1.33;1.00;;;15.10;99.90;;;;;;5077316;28;20609;-80
2021/07/06 05:07:40;;;;;;;6.47;1.67;;;15.20;99.90;;;;;;5079095;28;20177;-80
2021/07/06 05:10:09;;;;;;;3.60;1.23;;;15.30;99.90;;;;;;5076987;28;20228;-81
2021/07/06 05:12:35;;;;;;;2.37;1.10;;;15.40;99.90;;;;;;5077109;28;20208;-79
2021/07/06 05:15:03;;;;;;;1.77;1.10;;;15.40;99.90;;;;;;5079926;28;20172;-79
2021/07/06 05:17:28;;;;;;;2.30;1.20;;;15.50;99.90;;;;;;5078389;28;20172;-79
2021/07/06 05:19:54;;;;;;;2.23;1.00;;;15.60;99.90;;;;;;5078754;28;20291;-79
2021/07/06 05:22:21;;;;;;;3.77;1.33;;;15.70;99.90;;;;;;5078318;28;20177;-80
2021/07/06 05:24:47;;;;;;;2.00;1.30;;;15.90;99.90;;;;;;5078797;28;20623;-80
2021/07/06 05:27:13;;;;;;;1.10;1.00;;;16.00;99.90;;;;;;5077559;28;20192;-80
2021/07/06 05:29:39;;;;;;;3.00;1.10;;;16.10;99.90;;;;;;5076978;28;20607;-80
2021/07/06 05:32:05;;;;;;;3.73;1.13;;;16.20;99.90;;;;;;5075296;28;20663;-80
2021/07/06 05:34:31;;;;;;;1.43;0.90;;;16.20;99.90;;;;;;5076717;28;20222;-79
2021/07/06 05:36:57;;;;;;;3.43;1.20;;;16.30;99.90;;;;;;5077531;28;20179;-80
2021/07/06 05:39:24;;;;;;;1.47;1.00;;;16.30;99.90;;;;;;5075607;28;20716;-81
2021/07/06 05:41:50;;;;;;;1.10;1.00;;;16.30;99.90;;;;;;5077126;28;20176;-79
2021/07/06 05:44:16;;;;;;;1.77;1.00;;;16.40;99.90;;;;;;5074783;28;20238;-79
2021/07/06 05:46:42;;;;;;;4.13;1.10;;;16.40;99.90;;;;;;5075189;28;20180;-79
2021/07/06 05:49:07;;;;;;;1.87;1.17;;;16.40;99.90;;;;;;5087269;28;20296;-79
2021/07/06 05:51:33;;;;;;;2.53;0.90;;;16.50;99.90;;;;;;5076574;28;20200;-79
2021/07/06 05:53:59;;;;;;;3.40;1.17;;;16.50;99.90;;;;;;5076036;28;20219;-79
2021/07/06 05:56:24;;;;;;;2.10;1.20;;;16.60;99.90;;;;;;5075886;28;20184;-83
2021/07/06 05:58:50;;;;;;;2.53;1.40;;;16.60;99.90;;;;;;5076862;28;20201;-82
2021/07/06 06:01:17;;;;;;;2.47;1.20;;;16.70;99.90;;;;;;5077409;28;20180;-82
2021/07/06 06:03:42;;;;;;;1.77;1.10;;;16.80;99.90;;;;;;5077802;28;20184;-83
2021/07/06 06:06:09;;;;;;;2.53;1.30;;;16.90;99.90;;;;;;5079410;28;20184;-83
2021/07/06 06:08:38;;;;;;;2.27;1.17;;;17.00;99.90;;;;;;5077618;28;20256;-83
2021/07/06 06:11:05;;;;;;;1.87;1.00;;;17.10;99.90;;;;;;5078406;28;20204;-82
2021/07/06 06:13:31;;;;;;;1.20;1.10;;;17.20;99.90;;;;;;5078350;28;20180;-83
2021/07/06 06:15:56;;;;;;;3.17;0.80;;;17.20;99.90;;;;;;5079074;28;20173;-82
2021/07/06 06:18:22;;;;;;;1.57;0.90;;;17.40;99.90;;;;;;5079234;28;20692;-83
2021/07/06 06:20:48;;;;;;;2.30;1.00;;;17.40;99.90;;;;;;5083966;28;20222;-83
2021/07/06 06:23:14;;;;;;;1.17;0.83;;;17.60;99.90;;;;;;5076452;28;20188;-82
2021/07/06 06:25:40;;;;;;;1.83;1.10;;;17.70;99.90;;;;;;5076461;28;20204;-82
2021/07/06 06:28:06;;;;;;;3.37;1.00;;;17.80;99.90;;;;;;5081477;28;20188;-83
2021/07/06 06:30:32;;;;;;;1.13;1.03;;;17.90;99.90;;;;;;5080566;28;20203;-83
2021/07/06 06:32:58;;;;;;;1.50;1.00;;;18.00;99.90;;;;;;5082223;28;20200;-82
2021/07/06 06:35:23;;;;;;;0.93;0.80;;;18.10;99.90;;;;;;5081875;28;20178;-83
2021/07/06 06:37:50;;;;;;;1.67;1.00;;;18.20;99.90;;;;;;5081782;28;20199;-82
2021/07/06 06:40:16;;;;;;;2.33;0.87;;;18.30;99.90;;;;;;5081427;28;20713;-83
2021/07/06 06:42:42;;;;;;;2.60;0.90;;;18.40;99.90;;;;;;5082070;28;20219;-83
2021/07/06 06:45:09;;;;;;;1.53;1.30;;;18.50;99.90;;;;;;5079761;28;20180;-82
2021/07/06 06:47:37;;;;;;;0.97;0.90;;;18.50;99.90;;;;;;5080284;28;20181;-82
2021/07/06 06:50:05;;;;;;;1.10;0.90;;;18.70;99.90;;;;;;5079391;28;20759;-83
2021/07/06 06:52:31;;;;;;;1.03;0.93;;;18.80;99.90;;;;;;5080425;28;20208;-82
2021/07/06 06:54:57;;;;;;;1.10;1.00;;;18.90;99.90;;;;;;5079583;28;20184;-83
2021/07/06 06:57:26;;;;;;;5.67;1.40;;;19.00;99.90;;;;;;5079713;28;20185;-82
2021/07/06 06:59:52;;;;;;;1.30;1.17;;;19.00;99.90;;;;;;5081138;28;20417;-83
2021/07/06 07:02:21;;;;;;;1.00;0.90;;;19.10;99.90;;;;;;5080971;28;20250;-82
2021/07/06 07:04:49;;;;;;;4.97;1.30;;;19.30;99.90;;;;;;5078834;28;20169;-82
2021/07/06 07:07:16;;;;;;;1.97;1.03;;;19.40;99.90;;;;;;5079457;28;20183;-83
2021/07/06 07:09:42;;;;;;;1.63;1.10;;;19.60;99.90;;;;;;5079785;28;20240;-83
2021/07/06 07:12:08;;;;;;;2.07;1.00;;;19.70;99.90;;;;;;5081304;28;20206;-82
2021/07/06 07:14:35;;;;;;;1.83;0.93;;;19.70;99.90;;;;;;5081105;28;20246;-83
2021/07/06 07:17:02;;;;;;;2.13;1.00;;;19.90;99.90;;;;;;5081790;28;20177;-82
2021/07/06 07:19:28;;;;;;;1.30;0.90;;;20.00;99.90;;;;;;5083471;28;20667;-82
2021/07/06 07:21:53;;;;;;;1.87;0.90;;;20.10;99.90;;;;;;5080019;28;20183;-82
2021/07/06 07:24:19;;;;;;;1.73;0.80;;;20.20;99.90;;;;;;5077654;28;20181;-82
2021/07/06 07:26:45;;;;;;;2.57;1.00;;;20.30;99.90;;;;;;5077995;28;20179;-83
2021/07/06 07:29:10;;;;;;;1.10;1.00;;;20.40;99.90;;;;;;5079125;28;20752;-83
2021/07/06 07:31:37;;;;;;;1.30;1.03;;;20.60;99.90;;;;;;5077627;28;20212;-82
2021/07/06 07:34:02;;;;;;;1.00;0.80;;;20.70;99.90;;;;;;5077670;28;20207;-82
2021/07/06 07:36:28;;;;;;;1.30;0.83;;;20.80;99.90;;;;;;5078709;28;20638;-82
2021/07/06 07:38:55;;;;;;;4.20;1.10;;;20.90;99.90;;;;;;5077336;28;20247;-82
2021/07/06 07:41:21;;;;;;;4.03;1.00;;;21.10;99.90;;;;;;5078776;28;20696;-82
2021/07/06 07:43:52;;;;;;;3.07;1.47;;;21.20;99.90;;;;;;5078481;28;20265;-82
2021/07/06 07:46:18;;;;;;;4.23;1.20;;;21.50;99.90;;;;;;5078731;28;20522;-82
2021/07/06 07:48:45;;;;;;;2.53;1.27;;;21.70;99.90;;;;;;5078423;28;20217;-82
2021/07/06 07:51:10;;;;;;;3.03;1.00;;;21.90;99.90;;;;;;5078342;28;20285;-82
2021/07/06 07:53:36;;;;;;;3.90;0.97;;;22.00;99.90;;;;;;5077312;28;20215;-82
2021/07/06 07:56:02;;;;;;;2.53;1.20;;;22.10;99.90;;;;;;5077039;28;20653;-82
2021/07/06 07:58:27;;;;;;;2.63;0.90;;;22.30;99.90;;;;;;5078364;28;20188;-82
2021/07/06 08:00:53;;;;;;;4.30;0.90;;;22.30;99.90;;;;;;5078228;28;20177;-82
2021/07/06 08:03:19;;;;;;;1.20;0.93;;;22.40;99.90;;;;;;5077998;28;20177;-82
2021/07/06 08:05:44;;;;;;;1.47;0.90;;;22.50;99.90;;;;;;5076521;28;20184;-82
2021/07/06 08:08:10;;;;;;;3.63;0.90;;;22.50;99.90;;;;;;5077872;28;20577;-82
2021/07/06 08:10:35;;;;;;;2.50;1.10;;;22.60;99.90;;;;;;5076449;28;20638;-82
2021/07/06 08:13:01;;;;;;;1.53;1.10;;;22.70;99.90;;;;;;5076331;28;20207;-82
2021/07/06 08:15:27;;;;;;;2.67;1.17;;;22.80;99.90;;;;;;5081009;28;20181;-82
2021/07/06 08:17:52;;;;;;;1.57;1.00;;;22.90;99.90;;;;;;5084635;28;20214;-82
2021/07/06 08:20:18;;;;;;;1.70;1.20;;;23.00;99.90;;;;;;5077983;28;20227;-83
2021/07/06 08:22:44;;;;;;;1.57;1.10;;;23.10;99.90;;;;;;5078002;28;20231;-82
2021/07/06 08:25:10;;;;;;;1.63;1.00;;;23.30;99.90;;;;;;5076932;28;20185;-82
2021/07/06 08:27:36;;;;;;;1.50;1.00;;;23.50;99.90;;;;;;5077510;28;20615;-82
2021/07/06 08:30:03;;;;;;;2.67;1.10;;;23.60;99.90;;;;;;5077772;28;20201;-82
2021/07/06 08:32:29;;;;;;;4.57;0.97;;;23.70;99.90;;;;;;5077367;28;20215;-82
2021/07/06 08:34:54;;;;;;;1.67;1.20;;;23.90;99.90;;;;;;5078256;28;20213;-82
2021/07/06 08:37:20;;;;;;;2.30;0.80;;;24.10;99.90;;;;;;5079661;28;20207;-83
2021/07/06 08:39:46;;;;;;;0.80;0.80;;;24.30;99.90;;;;;;5079290;28;20211;-82
2021/07/06 08:42:11;;;;;;;1.73;0.67;;;24.40;99.90;;;;;;5078074;28;20244;-83
2021/07/06 08:44:39;;;;;;;0.70;0.70;;;24.60;99.90;;;;;;5078949;28;20661;-83
2021/07/06 08:47:06;;;;;;;2.00;0.60;;;24.70;99.90;;;;;;5077606;28;20178;-83
2021/07/06 08:49:33;;;;;;;1.90;0.80;;;24.90;99.90;;;;;;5077222;28;20197;-83
2021/07/06 08:52:03;;;;;;;2.03;0.70;;;25.10;99.90;;;;;;5078977;28;20197;-82
2021/07/06 08:54:30;;;;;;;1.33;0.70;;;25.30;99.90;;;;;;5077802;28;20175;-82
2021/07/06 08:56:55;;;;;;;1.17;0.80;;;25.50;99.90;;;;;;5077429;28;20200;-83
2021/07/06 08:59:21;;;;;;;1.03;0.90;;;25.70;99.90;;;;;;5078153;28;20194;-83
2021/07/06 09:01:47;;;;;;;1.00;0.70;;;25.90;99.90;;;;;;5077499;28;20215;-83
2021/07/06 09:04:13;;;;;;;0.77;0.77;;;26.30;99.90;;;;;;5079568;28;20178;-83
2021/07/06 09:06:57;;;;;;;3.17;0.83;;;26.50;99.90;;;;;;5077533;28;20177;-83
2021/07/06 09:09:26;;;;;;;2.83;0.83;;;26.70;99.90;;;;;;5078883;28;20286;-83
2021/07/06 09:11:54;;;;;;;3.03;0.70;;;26.90;99.90;;;;;;5077430;28;20215;-83
2021/07/06 09:14:27;;;;;;;2.50;0.87;;;27.00;99.90;;;;;;5077973;28;20203;-83
2021/07/06 09:17:06;;;;;;;2.87;0.87;;;27.10;99.90;;;;;;5078019;28;20555;-83
2021/07/06 09:19:32;;;;;;;2.83;0.70;;;27.30;99.90;;;;;;5079458;28;20188;-83
2021/07/06 09:22:18;;;;;;;0.80;0.80;;;27.40;99.90;;;;;;5078002;28;20712;-83
2021/07/06 09:24:47;;;;;;;4.27;0.90;;;27.40;99.90;;;;;;5077840;28;20182;-83
2021/07/06 09:27:26;;;;;;;0.97;0.70;;;27.40;99.90;;;;;;5078940;28;20197;-82
2021/07/06 09:30:14;;;;;;;0.70;0.70;;;27.60;99.90;;;;;;5078348;28;20219;-83
2021/07/06 09:32:44;;;;;;;2.40;0.70;;;27.90;99.90;;;;;;5080475;28;20206;-83
2021/07/06 09:35:25;;;;;;;2.60;0.70;;;28.10;99.90;;;;;;5078715;28;20190;-83
2021/07/06 09:38:02;;;;;;;1.23;0.80;;;28.20;99.90;;;;;;5079567;28;20162;-83
2021/07/06 09:40:41;;;;;;;2.90;0.97;;;28.40;99.90;;;;;;5079229;28;20195;-83
2021/07/06 09:43:33;;;;;;;1.47;0.90;;;28.60;99.90;;;;;;5081657;28;20183;-82
2021/07/06 09:46:09;;;;;;;1.03;0.77;;;28.90;99.90;;;;;;5078545;28;20218;-83
2021/07/06 09:48:39;;;;;;;1.47;0.80;;;29.00;99.90;;;;;;5076222;28;20206;-83
2021/07/06 09:51:19;;;;;;;1.37;0.60;;;29.10;99.90;;;;;;5075765;28;20188;-83
2021/07/06 09:53:55;;;;;;;1.33;0.70;;;29.30;99.90;;;;;;5075524;28;20534;-83
2021/07/06 09:56:23;;;;;;;1.43;0.93;;;29.40;99.90;;;;;;5075781;28;20161;-83
2021/07/06 09:58:57;;;;;;;0.93;0.70;;;29.50;99.90;;;;;;5075622;28;20199;-83
2021/07/06 10:01:25;;;;;;;1.47;0.70;;;29.80;99.90;;;;;;5076715;28;20180;-82
2021/07/06 10:03:52;;;;;;;1.10;0.90;;;29.70;99.90;;;;;;5077011;28;20173;-83
2021/07/06 10:06:23;;;;;;;2.10;0.80;;;29.80;99.90;;;;;;5075735;28;20212;-83
2021/07/06 10:08:50;;;;;;;1.30;0.80;;;29.80;99.90;;;;;;5075573;28;20197;-83
2021/07/06 10:11:17;;;;;;;1.20;0.80;;;30.00;99.90;;;;;;5075404;28;20230;-83
2021/07/06 10:13:43;;;;;;;2.33;0.80;;;29.90;99.90;;;;;;5075595;28;20180;-83
2021/07/06 10:16:09;;;;;;;1.67;1.00;;;30.10;99.90;;;;;;5077144;28;20173;-83
2021/07/06 10:18:36;;;;;;;1.30;0.90;;;30.20;99.90;;;;;;5075195;28;20534;-83
2021/07/06 10:21:03;;;;;;;1.37;0.80;;;30.40;99.90;;;;;;5075587;28;20177;-83
2021/07/06 10:23:30;;;;;;;0.90;0.80;;;30.60;99.90;;;;;;5076452;28;20233;-82
2021/07/06 10:25:59;;;;;;;3.90;1.10;;;30.60;99.90;;;;;;5075911;28;20701;-83
2021/07/06 10:28:26;;;;;;;0.93;0.83;;;30.60;99.90;;;;;;5074829;28;20195;-83
2021/07/06 10:30:53;;;;;;;3.07;0.93;;;30.70;99.90;;;;;;5075237;28;20508;-83
2021/07/06 10:33:33;;;;;;;1.07;0.90;;;30.90;99.90;;;;;;5076506;28;20176;-82
2021/07/06 10:36:00;;;;;;;0.97;0.90;;;31.00;99.90;;;;;;5075191;28;20176;-83
2021/07/06 10:38:29;;;;;;;1.23;1.00;;;30.90;99.90;;;;;;5074850;28;20181;-83
2021/07/06 10:41:14;;;;;;;1.20;0.90;;;30.90;99.90;;;;;;5085425;28;21069;-83
2021/07/06 10:43:42;;;;;;;1.73;1.10;;;31.00;99.90;;;;;;5076312;28;20255;-83
2021/07/06 10:46:20;;;;;;;1.30;0.90;;;31.20;99.90;;;;;;5078144;28;20202;-83
2021/07/06 10:49:03;;;;;;;1.83;1.00;;;31.10;99.90;;;;;;5076608;28;20589;-83
2021/07/06 10:51:38;;;;;;;1.10;1.00;;;30.90;99.90;;;;;;5076640;28;20218;-83
2021/07/06 10:54:07;;;;;;;2.57;0.97;;;31.20;99.90;;;;;;5076532;28;20180;-83
2021/07/06 10:56:35;;;;;;;4.30;1.60;;;31.30;99.90;;;;;;5076898;28;20174;-83
2021/07/06 10:59:03;;;;;;;2.67;1.87;;;31.20;99.90;;;;;;5075975;28;20254;-83
2021/07/06 11:01:40;;;;;;;1.60;1.30;;;31.20;99.90;;;;;;5078243;28;20166;-83
2021/07/06 11:04:11;;;;;;;2.30;1.10;;;31.10;99.90;;;;;;5078409;28;20174;-83
2021/07/06 11:06:46;;;;;;;1.20;1.10;;;31.30;99.90;;;;;;5076701;28;20177;-83
2021/07/06 11:09:34;;;;;;;4.23;1.27;;;31.40;99.90;;;;;;5076493;28;20198;-83
2021/07/06 11:12:18;;;;;;;6.10;1.30;;;31.60;99.90;;;;;;5077032;28;20210;-83
2021/07/06 11:14:48;;;;;;;2.67;1.17;;;31.70;99.90;;;;;;5081798;28;20175;-83
2021/07/06 11:17:30;;;;;;;1.20;0.93;;;31.60;99.60;;;;;;5080653;28;20169;-83
2021/07/06 11:20:10;;;;;;;0.77;0.70;;;31.30;95.60;;;;;;5080830;28;20189;-84
2021/07/06 11:22:47;;;;;;;0.97;0.73;;;31.30;95.10;;;;;;5080830;28;20181;-80
2021/07/06 11:25:37;;;;;;;1.70;0.87;;;31.40;97.30;;;;;;5079223;28;20166;-81
2021/07/06 11:28:15;;;;;;;0.77;0.70;;;31.70;96.60;;;;;;5079426;28;20197;-80
2021/07/06 11:30:48;;;;;;;1.60;1.10;;;31.70;93.30;;;;;;5078678;28;20198;-80
2021/07/06 11:33:17;;;;;;;2.50;1.00;;;31.70;95.10;;;;;;5079538;28;20201;-79
2021/07/06 11:35:47;;;;;;;3.13;1.00;;;31.80;94.90;;;;;;5079236;28;20181;-79
2021/07/06 11:38:18;;;;;;;1.50;1.40;;;31.70;98.00;;;;;;5080024;28;20178;-79
2021/07/06 11:40:46;;;;;;;0.97;0.70;;;31.80;94.50;;;;;;5078804;28;20174;-80
2021/07/06 11:43:16;;;;;;;3.00;0.93;;;31.90;93.80;;;;;;5079777;28;20247;-78
2021/07/06 11:45:48;;;;;;;0.80;0.80;;;32.10;95.80;;;;;;5078879;28;20663;-79
2021/07/06 11:48:15;;;;;;;1.13;0.80;;;32.50;96.00;;;;;;5078239;28;20166;-80
2021/07/06 11:50:44;;;;;;;2.67;0.90;;;32.80;93.10;;;;;;5079638;28;20165;-79
2021/07/06 11:53:11;;;;;;;2.43;1.10;;;33.00;93.00;;;;;;5079715;28;20538;-79
2021/07/06 11:55:39;;;;;;;1.13;0.70;;;32.90;92.00;;;;;;5079444;28;20175;-80
2021/07/06 11:58:08;;;;;;;0.80;0.70;;;33.10;97.40;;;;;;5079831;28;20171;-80
2021/07/06 12:00:35;;;;;;;0.80;0.80;;;33.40;91.10;;;;;;5077155;28;20214;-79
2021/07/06 12:03:40;;;;;;;0.87;0.73;;;33.40;88.20;;;;;;5079431;28;20195;-80
2021/07/06 12:06:09;;;;;;;2.90;0.90;;;33.30;80.10;;;;;;5040671;28;20210;-79
2021/07/06 12:08:40;;;;;;;1.60;1.00;;;33.10;84.70;;;;;;5057184;28;20189;-80
2021/07/06 12:11:16;;;;;;;1.30;1.20;;;33.20;85.30;;;;;;5069004;28;20186;-82
2021/07/06 12:13:42;;;;;;;1.47;1.10;;;33.60;87.90;;;;;;5078639;28;20252;-82
2021/07/06 12:16:16;;;;;;;5.73;1.23;;;33.70;82.40;;;;;;5079048;28;20173;-82
2021/07/06 12:19:10;;;;;;;2.07;0.90;;;33.90;93.10;;;;;;5078349;28;20267;-82
2021/07/06 12:21:40;;;;;;;2.40;0.90;;;33.90;90.90;;;;;;5077849;28;20614;-81
2021/07/06 12:24:07;;;;;;;1.43;1.10;;;32.70;92.60;;;;;;5078558;28;20192;-82
2021/07/06 12:26:40;;;;;;;1.00;0.90;;;31.30;89.90;;;;;;5080066;28;20182;-81
2021/07/06 12:29:06;;;;;;;0.97;0.90;;;30.30;93.20;;;;;;5080056;28;20570;-81
2021/07/06 12:31:37;;;;;;;1.00;0.90;;;31.20;94.70;;;;;;5079384;28;20196;-82
2021/07/06 12:34:08;;;;;;;1.07;0.97;;;32.10;91.90;;;;;;5080136;28;20233;-82
2021/07/06 12:36:38;;;;;;;1.07;0.93;;;32.90;90.40;;;;;;5079346;28;20199;-81
2021/07/06 12:39:19;;;;;;;2.20;1.00;;;33.50;91.40;;;;;;5079256;28;20291;-82
2021/07/06 12:41:56;;;;;;;5.53;0.80;;;33.40;87.50;;;;;;5079661;28;20248;-82
2021/07/06 12:45:06;;;;;;;2.93;0.97;;;33.70;91.00;;;;;;5083968;28;20154;-82
2021/07/06 12:47:43;;;;;;;1.77;1.00;;;33.90;91.40;;;;;;5055620;28;20188;-82
2021/07/06 12:50:15;;;;;;;5.47;1.30;;;33.00;87.30;;;;;;5076174;28;20200;-82
2021/07/06 12:52:42;;;;;;;2.70;1.00;;;32.00;90.80;;;;;;5076429;28;20183;-82
2021/07/06 12:55:09;;;;;;;1.00;0.80;;;31.80;96.10;;;;;;5087805;28;20181;-82